sensor_id;sensor_type;location;lat;lon;timestamp;P1;durP1;ratioP1;P2;durP2;ratioP2
3791;SDS011;1911;53.768;11.474;2023-06-14T00:01:27;6.30;;;3.70;;
3791;SDS011;1911;53.768;11.474;2023-06-14T00:03:53;8.77;;;3.63;;
3791;SDS011;1911;53.768;11.474;2023-06-14T00:06:20;7.63;;;3.87;;
3791;SDS011;1911;53.768;11.474;2023-06-14T00:08:46;5.03;;;3.30;;
3791;SDS011;1911;53.768;11.474;2023-06-14T00:11:11;7.10;;;3.53;;
3791;SDS011;1911;53.768;11.474;2023-06-14T00:13:37;10.20;;;4.17;;
3791;SDS011;1911;53.768;11.474;2023-06-14T00:16:02;6.93;;;4.00;;
3791;SDS011;1911;53.768;11.474;2023-06-14T00:18:29;7.33;;;3.80;;
3791;SDS011;1911;53.768;11.474;2023-06-14T00:20:55;6.43;;;3.13;;
3791;SDS011;1911;53.768;11.474;2023-06-14T00:23:22;5.93;;;4.00;;
3791;SDS011;1911;53.768;11.474;2023-06-14T00:25:47;6.63;;;3.83;;
3791;SDS011;1911;53.768;11.474;2023-06-14T00:28:13;10.30;;;3.60;;
3791;SDS011;1911;53.768;11.474;2023-06-14T00:30:39;6.13;;;4.23;;
3791;SDS011;1911;53.768;11.474;2023-06-14T00:33:04;6.07;;;3.40;;
3791;SDS011;1911;53.768;11.474;2023-06-14T00:35:30;5.50;;;3.27;;
3791;SDS011;1911;53.768;11.474;2023-06-14T00:37:56;8.63;;;3.60;;
3791;SDS011;1911;53.768;11.474;2023-06-14T00:40:21;9.03;;;3.70;;
3791;SDS011;1911;53.768;11.474;2023-06-14T00:42:47;6.73;;;3.73;;
3791;SDS011;1911;53.768;11.474;2023-06-14T00:45:13;7.60;;;4.43;;
3791;SDS011;1911;53.768;11.474;2023-06-14T00:47:38;5.57;;;3.63;;
3791;SDS011;1911;53.768;11.474;2023-06-14T00:50:07;8.70;;;3.20;;
3791;SDS011;1911;53.768;11.474;2023-06-14T00:52:33;9.10;;;3.60;;
3791;SDS011;1911;53.768;11.474;2023-06-14T00:54:59;5.10;;;3.93;;
3791;SDS011;1911;53.768;11.474;2023-06-14T00:57:26;6.60;;;3.50;;
3791;SDS011;1911;53.768;11.474;2023-06-14T00:59:52;7.93;;;3.97;;
3791;SDS011;1911;53.768;11.474;2023-06-14T01:02:17;8.33;;;4.10;;
3791;SDS011;1911;53.768;11.474;2023-06-14T01:04:48;7.20;;;4.30;;
3791;SDS011;1911;53.768;11.474;2023-06-14T01:07:38;9.77;;;4.40;;
3791;SDS011;1911;53.768;11.474;2023-06-14T01:13:07;4.30;;;3.33;;
3791;SDS011;1911;53.768;11.474;2023-06-14T01:15:46;9.77;;;4.20;;
3791;SDS011;1911;53.768;11.474;2023-06-14T01:18:12;7.53;;;4.03;;
3791;SDS011;1911;53.768;11.474;2023-06-14T01:20:45;5.80;;;4.00;;
3791;SDS011;1911;53.768;11.474;2023-06-14T01:23:15;7.03;;;4.53;;
3791;SDS011;1911;53.768;11.474;2023-06-14T01:25:42;6.43;;;4.33;;
3791;SDS011;1911;53.768;11.474;2023-06-14T01:28:09;8.83;;;4.10;;
3791;SDS011;1911;53.768;11.474;2023-06-14T01:30:38;5.00;;;3.50;;
3791;SDS011;1911;53.768;11.474;2023-06-14T01:33:10;7.93;;;4.33;;
3791;SDS011;1911;53.768;11.474;2023-06-14T01:35:42;9.50;;;4.23;;
3791;SDS011;1911;53.768;11.474;2023-06-14T01:38:08;5.67;;;3.60;;
3791;SDS011;1911;53.768;11.474;2023-06-14T01:40:35;6.50;;;3.60;;
3791;SDS011;1911;53.768;11.474;2023-06-14T01:43:01;8.00;;;4.53;;
3791;SDS011;1911;53.768;11.474;2023-06-14T01:45:28;6.60;;;3.80;;
3791;SDS011;1911;53.768;11.474;2023-06-14T01:47:54;7.97;;;4.10;;
3791;SDS011;1911;53.768;11.474;2023-06-14T01:50:20;7.53;;;3.77;;
3791;SDS011;1911;53.768;11.474;2023-06-14T01:52:46;9.20;;;4.40;;
3791;SDS011;1911;53.768;11.474;2023-06-14T01:55:12;7.83;;;3.70;;
3791;SDS011;1911;53.768;11.474;2023-06-14T01:57:39;7.57;;;3.90;;
3791;SDS011;1911;53.768;11.474;2023-06-14T02:00:05;14.03;;;4.23;;
3791;SDS011;1911;53.768;11.474;2023-06-14T02:02:37;8.50;;;3.90;;
3791;SDS011;1911;53.768;11.474;2023-06-14T02:05:03;9.30;;;4.37;;
3791;SDS011;1911;53.768;11.474;2023-06-14T02:07:29;12.67;;;4.37;;
3791;SDS011;1911;53.768;11.474;2023-06-14T02:09:55;6.00;;;4.27;;
3791;SDS011;1911;53.768;11.474;2023-06-14T02:12:20;8.27;;;4.63;;
3791;SDS011;1911;53.768;11.474;2023-06-14T02:14:46;11.90;;;4.97;;
3791;SDS011;1911;53.768;11.474;2023-06-14T02:17:11;8.03;;;4.83;;
3791;SDS011;1911;53.768;11.474;2023-06-14T02:19:37;8.33;;;4.20;;
3791;SDS011;1911;53.768;11.474;2023-06-14T02:22:03;11.30;;;3.60;;
3791;SDS011;1911;53.768;11.474;2023-06-14T02:24:29;8.77;;;4.90;;
3791;SDS011;1911;53.768;11.474;2023-06-14T02:26:55;9.77;;;3.93;;
3791;SDS011;1911;53.768;11.474;2023-06-14T02:29:20;11.07;;;5.03;;
3791;SDS011;1911;53.768;11.474;2023-06-14T02:31:46;6.40;;;4.10;;
3791;SDS011;1911;53.768;11.474;2023-06-14T02:34:13;6.03;;;4.43;;
3791;SDS011;1911;53.768;11.474;2023-06-14T02:36:39;13.33;;;4.57;;
3791;SDS011;1911;53.768;11.474;2023-06-14T02:39:06;6.93;;;4.00;;
3791;SDS011;1911;53.768;11.474;2023-06-14T02:41:35;9.00;;;5.23;;
3791;SDS011;1911;53.768;11.474;2023-06-14T02:44:01;6.10;;;4.57;;
3791;SDS011;1911;53.768;11.474;2023-06-14T02:46:26;9.13;;;4.57;;
3791;SDS011;1911;53.768;11.474;2023-06-14T02:48:52;6.20;;;3.97;;
3791;SDS011;1911;53.768;11.474;2023-06-14T02:51:17;7.50;;;4.53;;
3791;SDS011;1911;53.768;11.474;2023-06-14T02:53:43;9.10;;;4.93;;
3791;SDS011;1911;53.768;11.474;2023-06-14T02:56:09;10.63;;;5.90;;
3791;SDS011;1911;53.768;11.474;2023-06-14T02:58:36;6.40;;;3.90;;
3791;SDS011;1911;53.768;11.474;2023-06-14T03:01:02;7.17;;;4.70;;
3791;SDS011;1911;53.768;11.474;2023-06-14T03:03:28;7.80;;;4.70;;
3791;SDS011;1911;53.768;11.474;2023-06-14T03:05:53;9.17;;;5.17;;
3791;SDS011;1911;53.768;11.474;2023-06-14T03:08:19;16.03;;;4.60;;
3791;SDS011;1911;53.768;11.474;2023-06-14T03:10:45;8.73;;;5.37;;
3791;SDS011;1911;53.768;11.474;2023-06-14T03:13:12;11.17;;;5.00;;
3791;SDS011;1911;53.768;11.474;2023-06-14T03:15:38;7.00;;;4.97;;
3791;SDS011;1911;53.768;11.474;2023-06-14T03:18:07;9.20;;;5.30;;
3791;SDS011;1911;53.768;11.474;2023-06-14T03:20:34;9.87;;;5.27;;
3791;SDS011;1911;53.768;11.474;2023-06-14T03:23:01;7.87;;;3.93;;
3791;SDS011;1911;53.768;11.474;2023-06-14T03:25:28;6.67;;;4.40;;
3791;SDS011;1911;53.768;11.474;2023-06-14T03:27:56;6.30;;;4.47;;
3791;SDS011;1911;53.768;11.474;2023-06-14T03:30:22;7.90;;;4.40;;
3791;SDS011;1911;53.768;11.474;2023-06-14T03:32:48;11.23;;;5.37;;
3791;SDS011;1911;53.768;11.474;2023-06-14T03:35:14;11.10;;;5.80;;
3791;SDS011;1911;53.768;11.474;2023-06-14T03:37:45;25.03;;;8.27;;
3791;SDS011;1911;53.768;11.474;2023-06-14T03:40:12;12.00;;;7.33;;
3791;SDS011;1911;53.768;11.474;2023-06-14T03:42:39;10.03;;;5.60;;
3791;SDS011;1911;53.768;11.474;2023-06-14T03:45:05;8.07;;;4.90;;
3791;SDS011;1911;53.768;11.474;2023-06-14T03:47:34;8.13;;;5.20;;
3791;SDS011;1911;53.768;11.474;2023-06-14T03:50:00;6.63;;;4.83;;
3791;SDS011;1911;53.768;11.474;2023-06-14T03:52:26;7.23;;;5.10;;
3791;SDS011;1911;53.768;11.474;2023-06-14T03:54:52;8.63;;;5.53;;
3791;SDS011;1911;53.768;11.474;2023-06-14T03:57:18;11.80;;;5.00;;
3791;SDS011;1911;53.768;11.474;2023-06-14T03:59:45;8.00;;;4.80;;
3791;SDS011;1911;53.768;11.474;2023-06-14T04:02:10;8.87;;;4.80;;
3791;SDS011;1911;53.768;11.474;2023-06-14T04:04:36;8.07;;;4.40;;
3791;SDS011;1911;53.768;11.474;2023-06-14T04:07:02;9.77;;;5.50;;
3791;SDS011;1911;53.768;11.474;2023-06-14T04:09:31;9.20;;;4.50;;
3791;SDS011;1911;53.768;11.474;2023-06-14T04:11:57;11.07;;;4.97;;
3791;SDS011;1911;53.768;11.474;2023-06-14T04:14:22;9.27;;;4.77;;
3791;SDS011;1911;53.768;11.474;2023-06-14T04:16:48;8.13;;;4.97;;
3791;SDS011;1911;53.768;11.474;2023-06-14T04:19:15;12.00;;;5.50;;
3791;SDS011;1911;53.768;11.474;2023-06-14T04:21:41;11.70;;;4.40;;
3791;SDS011;1911;53.768;11.474;2023-06-14T04:24:07;7.57;;;4.83;;
3791;SDS011;1911;53.768;11.474;2023-06-14T04:26:38;8.33;;;4.30;;
3791;SDS011;1911;53.768;11.474;2023-06-14T04:29:09;14.43;;;4.57;;
3791;SDS011;1911;53.768;11.474;2023-06-14T04:31:39;8.13;;;3.93;;
3791;SDS011;1911;53.768;11.474;2023-06-14T04:34:05;4.97;;;3.90;;
3791;SDS011;1911;53.768;11.474;2023-06-14T04:36:32;5.90;;;4.30;;
3791;SDS011;1911;53.768;11.474;2023-06-14T04:38:59;8.03;;;3.90;;
3791;SDS011;1911;53.768;11.474;2023-06-14T04:41:28;6.23;;;3.67;;
3791;SDS011;1911;53.768;11.474;2023-06-14T04:43:56;6.93;;;4.07;;
3791;SDS011;1911;53.768;11.474;2023-06-14T04:46:23;6.50;;;3.63;;
3791;SDS011;1911;53.768;11.474;2023-06-14T04:48:49;5.77;;;3.93;;
3791;SDS011;1911;53.768;11.474;2023-06-14T04:51:15;7.13;;;3.60;;
3791;SDS011;1911;53.768;11.474;2023-06-14T04:53:41;7.47;;;4.40;;
3791;SDS011;1911;53.768;11.474;2023-06-14T04:56:07;5.43;;;3.23;;
3791;SDS011;1911;53.768;11.474;2023-06-14T04:58:33;11.43;;;4.83;;
3791;SDS011;1911;53.768;11.474;2023-06-14T05:00:59;9.03;;;4.13;;
3791;SDS011;1911;53.768;11.474;2023-06-14T05:03:26;8.93;;;4.33;;
3791;SDS011;1911;53.768;11.474;2023-06-14T05:05:52;6.20;;;4.13;;
3791;SDS011;1911;53.768;11.474;2023-06-14T05:08:20;5.70;;;4.20;;
3791;SDS011;1911;53.768;11.474;2023-06-14T05:10:48;8.40;;;4.70;;
3791;SDS011;1911;53.768;11.474;2023-06-14T05:13:14;8.17;;;3.47;;
3791;SDS011;1911;53.768;11.474;2023-06-14T05:15:39;6.23;;;3.70;;
3791;SDS011;1911;53.768;11.474;2023-06-14T05:18:05;5.30;;;3.90;;
3791;SDS011;1911;53.768;11.474;2023-06-14T05:20:33;4.57;;;3.53;;
3791;SDS011;1911;53.768;11.474;2023-06-14T05:22:59;5.27;;;3.33;;
3791;SDS011;1911;53.768;11.474;2023-06-14T05:25:25;7.27;;;4.00;;
3791;SDS011;1911;53.768;11.474;2023-06-14T05:27:53;5.23;;;3.23;;
3791;SDS011;1911;53.768;11.474;2023-06-14T05:30:18;6.43;;;4.40;;
3791;SDS011;1911;53.768;11.474;2023-06-14T05:32:44;6.43;;;3.37;;
3791;SDS011;1911;53.768;11.474;2023-06-14T05:35:10;11.47;;;4.13;;
3791;SDS011;1911;53.768;11.474;2023-06-14T05:37:36;4.90;;;3.60;;
3791;SDS011;1911;53.768;11.474;2023-06-14T05:40:02;5.50;;;3.70;;
3791;SDS011;1911;53.768;11.474;2023-06-14T05:42:30;5.60;;;3.17;;
3791;SDS011;1911;53.768;11.474;2023-06-14T05:44:56;3.60;;;2.70;;
3791;SDS011;1911;53.768;11.474;2023-06-14T05:47:21;7.43;;;3.73;;
3791;SDS011;1911;53.768;11.474;2023-06-14T05:49:47;9.37;;;3.80;;
3791;SDS011;1911;53.768;11.474;2023-06-14T05:52:13;4.47;;;3.03;;
3791;SDS011;1911;53.768;11.474;2023-06-14T05:54:38;5.80;;;3.30;;
3791;SDS011;1911;53.768;11.474;2023-06-14T05:57:04;5.97;;;3.60;;
3791;SDS011;1911;53.768;11.474;2023-06-14T05:59:31;5.63;;;3.10;;
3791;SDS011;1911;53.768;11.474;2023-06-14T06:01:57;4.50;;;2.80;;
3791;SDS011;1911;53.768;11.474;2023-06-14T06:04:22;9.60;;;3.47;;
3791;SDS011;1911;53.768;11.474;2023-06-14T06:06:48;3.50;;;3.20;;
3791;SDS011;1911;53.768;11.474;2023-06-14T06:09:14;18.97;;;4.10;;
3791;SDS011;1911;53.768;11.474;2023-06-14T06:11:39;3.60;;;2.97;;
3791;SDS011;1911;53.768;11.474;2023-06-14T06:14:05;4.80;;;2.63;;
3791;SDS011;1911;53.768;11.474;2023-06-14T06:16:31;6.37;;;3.77;;
3791;SDS011;1911;53.768;11.474;2023-06-14T06:18:57;4.47;;;3.20;;
3791;SDS011;1911;53.768;11.474;2023-06-14T06:21:24;5.40;;;2.57;;
3791;SDS011;1911;53.768;11.474;2023-06-14T06:23:50;6.10;;;3.23;;
3791;SDS011;1911;53.768;11.474;2023-06-14T06:26:16;4.73;;;2.80;;
3791;SDS011;1911;53.768;11.474;2023-06-14T06:28:41;5.47;;;2.63;;
3791;SDS011;1911;53.768;11.474;2023-06-14T06:31:07;4.00;;;2.47;;
3791;SDS011;1911;53.768;11.474;2023-06-14T06:33:33;5.33;;;2.67;;
3791;SDS011;1911;53.768;11.474;2023-06-14T06:35:58;5.03;;;2.60;;
3791;SDS011;1911;53.768;11.474;2023-06-14T06:38:24;4.70;;;3.10;;
3791;SDS011;1911;53.768;11.474;2023-06-14T06:40:50;5.43;;;2.80;;
3791;SDS011;1911;53.768;11.474;2023-06-14T06:43:15;4.80;;;2.50;;
3791;SDS011;1911;53.768;11.474;2023-06-14T06:45:42;4.23;;;2.93;;
3791;SDS011;1911;53.768;11.474;2023-06-14T06:48:08;5.80;;;2.90;;
3791;SDS011;1911;53.768;11.474;2023-06-14T06:50:37;11.57;;;3.60;;
3791;SDS011;1911;53.768;11.474;2023-06-14T06:53:02;4.30;;;2.73;;
3791;SDS011;1911;53.768;11.474;2023-06-14T06:55:28;5.80;;;3.03;;
3791;SDS011;1911;53.768;11.474;2023-06-14T06:57:54;6.53;;;3.23;;
3791;SDS011;1911;53.768;11.474;2023-06-14T07:00:20;4.13;;;2.90;;
3791;SDS011;1911;53.768;11.474;2023-06-14T07:02:46;4.67;;;2.73;;
3791;SDS011;1911;53.768;11.474;2023-06-14T07:05:12;3.27;;;2.53;;
3791;SDS011;1911;53.768;11.474;2023-06-14T07:07:38;4.63;;;2.10;;
3791;SDS011;1911;53.768;11.474;2023-06-14T07:10:04;5.20;;;3.10;;
3791;SDS011;1911;53.768;11.474;2023-06-14T07:12:33;4.27;;;2.83;;
3791;SDS011;1911;53.768;11.474;2023-06-14T07:15:01;7.10;;;2.57;;
3791;SDS011;1911;53.768;11.474;2023-06-14T07:17:26;4.27;;;2.80;;
3791;SDS011;1911;53.768;11.474;2023-06-14T07:19:52;4.33;;;2.97;;
3791;SDS011;1911;53.768;11.474;2023-06-14T07:22:18;4.27;;;3.00;;
3791;SDS011;1911;53.768;11.474;2023-06-14T07:24:44;4.77;;;2.90;;
3791;SDS011;1911;53.768;11.474;2023-06-14T07:27:10;4.00;;;3.13;;
3791;SDS011;1911;53.768;11.474;2023-06-14T07:29:38;14.73;;;3.33;;
3791;SDS011;1911;53.768;11.474;2023-06-14T07:32:04;9.33;;;2.53;;
3791;SDS011;1911;53.768;11.474;2023-06-14T07:34:30;6.20;;;2.70;;
3791;SDS011;1911;53.768;11.474;2023-06-14T07:36:55;6.30;;;3.03;;
3791;SDS011;1911;53.768;11.474;2023-06-14T07:39:21;3.20;;;2.90;;
3791;SDS011;1911;53.768;11.474;2023-06-14T07:41:47;6.70;;;3.00;;
3791;SDS011;1911;53.768;11.474;2023-06-14T07:44:12;4.00;;;2.77;;
3791;SDS011;1911;53.768;11.474;2023-06-14T07:46:38;3.10;;;2.60;;
3791;SDS011;1911;53.768;11.474;2023-06-14T07:49:04;4.93;;;2.90;;
3791;SDS011;1911;53.768;11.474;2023-06-14T07:51:30;4.13;;;3.70;;
3791;SDS011;1911;53.768;11.474;2023-06-14T07:53:55;4.00;;;2.90;;
3791;SDS011;1911;53.768;11.474;2023-06-14T07:56:21;5.13;;;2.80;;
3791;SDS011;1911;53.768;11.474;2023-06-14T07:58:48;4.27;;;2.63;;
3791;SDS011;1911;53.768;11.474;2023-06-14T08:01:13;5.17;;;2.87;;
3791;SDS011;1911;53.768;11.474;2023-06-14T08:03:40;4.43;;;3.07;;
3791;SDS011;1911;53.768;11.474;2023-06-14T08:06:06;6.70;;;2.90;;
3791;SDS011;1911;53.768;11.474;2023-06-14T08:08:32;5.57;;;3.00;;
3791;SDS011;1911;53.768;11.474;2023-06-14T08:10:58;5.77;;;2.87;;
3791;SDS011;1911;53.768;11.474;2023-06-14T08:13:23;3.03;;;2.40;;
3791;SDS011;1911;53.768;11.474;2023-06-14T08:15:49;4.87;;;2.50;;
3791;SDS011;1911;53.768;11.474;2023-06-14T08:18:14;3.00;;;2.20;;
3791;SDS011;1911;53.768;11.474;2023-06-14T08:20:40;4.40;;;2.50;;
3791;SDS011;1911;53.768;11.474;2023-06-14T08:23:06;3.30;;;2.33;;
3791;SDS011;1911;53.768;11.474;2023-06-14T08:25:33;8.07;;;2.60;;
3791;SDS011;1911;53.768;11.474;2023-06-14T08:27:59;4.37;;;2.63;;
3791;SDS011;1911;53.768;11.474;2023-06-14T08:30:25;3.70;;;2.17;;
3791;SDS011;1911;53.768;11.474;2023-06-14T08:32:51;16.80;;;2.57;;
3791;SDS011;1911;53.768;11.474;2023-06-14T08:35:17;3.00;;;2.10;;
3791;SDS011;1911;53.768;11.474;2023-06-14T08:37:43;5.33;;;2.30;;
3791;SDS011;1911;53.768;11.474;2023-06-14T08:40:13;3.70;;;2.80;;
3791;SDS011;1911;53.768;11.474;2023-06-14T08:42:52;7.90;;;2.87;;
3791;SDS011;1911;53.768;11.474;2023-06-14T08:45:19;5.40;;;2.77;;
3791;SDS011;1911;53.768;11.474;2023-06-14T08:47:49;4.17;;;2.27;;
3791;SDS011;1911;53.768;11.474;2023-06-14T08:50:23;5.83;;;2.70;;
3791;SDS011;1911;53.768;11.474;2023-06-14T08:52:51;4.07;;;2.87;;
3791;SDS011;1911;53.768;11.474;2023-06-14T08:55:19;6.40;;;3.00;;
3791;SDS011;1911;53.768;11.474;2023-06-14T08:57:50;6.37;;;2.60;;
3791;SDS011;1911;53.768;11.474;2023-06-14T09:00:18;7.90;;;2.83;;
3791;SDS011;1911;53.768;11.474;2023-06-14T09:02:46;3.27;;;2.23;;
3791;SDS011;1911;53.768;11.474;2023-06-14T09:05:12;4.00;;;2.77;;
3791;SDS011;1911;53.768;11.474;2023-06-14T09:07:39;2.83;;;2.23;;
3791;SDS011;1911;53.768;11.474;2023-06-14T09:10:07;8.73;;;2.73;;
3791;SDS011;1911;53.768;11.474;2023-06-14T09:12:35;3.87;;;2.23;;
3791;SDS011;1911;53.768;11.474;2023-06-14T09:15:07;3.30;;;2.40;;
3791;SDS011;1911;53.768;11.474;2023-06-14T09:17:37;4.37;;;3.00;;
3791;SDS011;1911;53.768;11.474;2023-06-14T09:20:07;4.03;;;2.33;;
3791;SDS011;1911;53.768;11.474;2023-06-14T09:22:43;3.97;;;2.20;;
3791;SDS011;1911;53.768;11.474;2023-06-14T09:25:09;8.13;;;2.70;;
3791;SDS011;1911;53.768;11.474;2023-06-14T09:27:35;4.07;;;2.30;;
3791;SDS011;1911;53.768;11.474;2023-06-14T09:30:04;3.60;;;2.13;;
3791;SDS011;1911;53.768;11.474;2023-06-14T09:32:35;5.10;;;2.30;;
3791;SDS011;1911;53.768;11.474;2023-06-14T09:35:02;3.50;;;2.43;;
3791;SDS011;1911;53.768;11.474;2023-06-14T09:37:30;3.33;;;2.30;;
3791;SDS011;1911;53.768;11.474;2023-06-14T09:39:57;3.20;;;2.40;;
3791;SDS011;1911;53.768;11.474;2023-06-14T09:42:23;4.93;;;2.30;;
3791;SDS011;1911;53.768;11.474;2023-06-14T09:44:51;4.77;;;2.80;;
3791;SDS011;1911;53.768;11.474;2023-06-14T09:47:18;9.30;;;2.87;;
3791;SDS011;1911;53.768;11.474;2023-06-14T09:49:44;3.33;;;2.80;;
3791;SDS011;1911;53.768;11.474;2023-06-14T09:52:14;3.80;;;2.77;;
3791;SDS011;1911;53.768;11.474;2023-06-14T09:54:41;4.93;;;2.60;;
3791;SDS011;1911;53.768;11.474;2023-06-14T09:57:09;4.90;;;2.97;;
3791;SDS011;1911;53.768;11.474;2023-06-14T09:59:36;5.00;;;2.80;;
3791;SDS011;1911;53.768;11.474;2023-06-14T10:07:30;12.60;;;2.80;;
3791;SDS011;1911;53.768;11.474;2023-06-14T10:10:02;10.50;;;3.17;;
3791;SDS011;1911;53.768;11.474;2023-06-14T10:12:28;3.40;;;2.37;;
3791;SDS011;1911;53.768;11.474;2023-06-14T10:14:54;3.27;;;2.73;;
3791;SDS011;1911;53.768;11.474;2023-06-14T10:17:34;3.37;;;2.67;;
3791;SDS011;1911;53.768;11.474;2023-06-14T10:20:23;5.47;;;3.47;;
3791;SDS011;1911;53.768;11.474;2023-06-14T10:23:07;7.50;;;3.40;;
3791;SDS011;1911;53.768;11.474;2023-06-14T10:25:38;5.30;;;3.30;;
3791;SDS011;1911;53.768;11.474;2023-06-14T10:28:17;4.60;;;3.03;;
3791;SDS011;1911;53.768;11.474;2023-06-14T10:31:01;5.43;;;2.70;;
3791;SDS011;1911;53.768;11.474;2023-06-14T10:33:31;4.40;;;2.47;;
3791;SDS011;1911;53.768;11.474;2023-06-14T10:39:10;5.63;;;3.10;;
3791;SDS011;1911;53.768;11.474;2023-06-14T10:41:40;5.43;;;3.33;;
3791;SDS011;1911;53.768;11.474;2023-06-14T10:46:39;9.73;;;3.20;;
3791;SDS011;1911;53.768;11.474;2023-06-14T10:49:05;3.90;;;3.00;;
3791;SDS011;1911;53.768;11.474;2023-06-14T10:51:38;6.30;;;2.70;;
3791;SDS011;1911;53.768;11.474;2023-06-14T10:54:13;5.40;;;3.23;;
3791;SDS011;1911;53.768;11.474;2023-06-14T10:56:49;3.50;;;2.37;;
3791;SDS011;1911;53.768;11.474;2023-06-14T10:59:16;8.87;;;3.17;;
3791;SDS011;1911;53.768;11.474;2023-06-14T11:04:50;5.20;;;2.90;;
3791;SDS011;1911;53.768;11.474;2023-06-14T11:13:06;6.90;;;2.87;;
3791;SDS011;1911;53.768;11.474;2023-06-14T11:15:33;4.83;;;3.00;;
3791;SDS011;1911;53.768;11.474;2023-06-14T11:18:00;7.07;;;2.77;;
3791;SDS011;1911;53.768;11.474;2023-06-14T11:20:29;6.87;;;2.57;;
3791;SDS011;1911;53.768;11.474;2023-06-14T11:22:56;4.13;;;2.80;;
3791;SDS011;1911;53.768;11.474;2023-06-14T11:25:22;4.77;;;2.37;;
3791;SDS011;1911;53.768;11.474;2023-06-14T11:27:51;3.23;;;2.20;;
3791;SDS011;1911;53.768;11.474;2023-06-14T11:30:17;4.80;;;2.70;;
3791;SDS011;1911;53.768;11.474;2023-06-14T11:32:46;4.93;;;2.50;;
3791;SDS011;1911;53.768;11.474;2023-06-14T11:35:13;3.40;;;2.57;;
3791;SDS011;1911;53.768;11.474;2023-06-14T11:37:39;5.60;;;2.73;;
3791;SDS011;1911;53.768;11.474;2023-06-14T11:40:07;4.10;;;2.57;;
3791;SDS011;1911;53.768;11.474;2023-06-14T11:42:35;3.30;;;2.17;;
3791;SDS011;1911;53.768;11.474;2023-06-14T11:45:01;3.77;;;2.83;;
3791;SDS011;1911;53.768;11.474;2023-06-14T11:47:34;6.23;;;3.07;;
3791;SDS011;1911;53.768;11.474;2023-06-14T11:50:00;5.63;;;2.73;;
3791;SDS011;1911;53.768;11.474;2023-06-14T11:52:26;4.23;;;2.93;;
3791;SDS011;1911;53.768;11.474;2023-06-14T11:54:55;3.30;;;2.37;;
3791;SDS011;1911;53.768;11.474;2023-06-14T11:57:22;5.60;;;2.30;;
3791;SDS011;1911;53.768;11.474;2023-06-14T11:59:48;5.27;;;2.60;;
3791;SDS011;1911;53.768;11.474;2023-06-14T12:02:14;5.10;;;2.73;;
3791;SDS011;1911;53.768;11.474;2023-06-14T12:04:41;6.67;;;2.60;;
3791;SDS011;1911;53.768;11.474;2023-06-14T12:07:15;4.40;;;2.77;;
3791;SDS011;1911;53.768;11.474;2023-06-14T12:10:04;4.53;;;2.73;;
3791;SDS011;1911;53.768;11.474;2023-06-14T12:12:34;8.83;;;2.67;;
3791;SDS011;1911;53.768;11.474;2023-06-14T12:15:04;5.10;;;2.80;;
3791;SDS011;1911;53.768;11.474;2023-06-14T12:17:32;4.13;;;2.60;;
3791;SDS011;1911;53.768;11.474;2023-06-14T12:20:10;3.23;;;2.23;;
3791;SDS011;1911;53.768;11.474;2023-06-14T12:22:53;6.70;;;3.07;;
3791;SDS011;1911;53.768;11.474;2023-06-14T12:25:32;7.70;;;2.60;;
3791;SDS011;1911;53.768;11.474;2023-06-14T12:28:04;3.03;;;2.33;;
3791;SDS011;1911;53.768;11.474;2023-06-14T12:30:34;5.30;;;2.80;;
3791;SDS011;1911;53.768;11.474;2023-06-14T12:33:04;3.33;;;2.30;;
3791;SDS011;1911;53.768;11.474;2023-06-14T12:35:30;4.50;;;2.70;;
3791;SDS011;1911;53.768;11.474;2023-06-14T12:37:56;3.00;;;2.50;;
3791;SDS011;1911;53.768;11.474;2023-06-14T12:40:22;4.60;;;2.80;;
3791;SDS011;1911;53.768;11.474;2023-06-14T12:42:48;5.10;;;2.47;;
3791;SDS011;1911;53.768;11.474;2023-06-14T12:45:14;5.03;;;2.70;;
3791;SDS011;1911;53.768;11.474;2023-06-14T12:47:40;6.43;;;2.70;;
3791;SDS011;1911;53.768;11.474;2023-06-14T12:50:07;17.27;;;2.87;;
3791;SDS011;1911;53.768;11.474;2023-06-14T12:52:33;5.73;;;2.73;;
3791;SDS011;1911;53.768;11.474;2023-06-14T12:55:04;3.43;;;2.80;;
3791;SDS011;1911;53.768;11.474;2023-06-14T12:57:30;3.73;;;2.90;;
3791;SDS011;1911;53.768;11.474;2023-06-14T12:59:56;6.00;;;2.53;;
3791;SDS011;1911;53.768;11.474;2023-06-14T13:02:22;5.87;;;2.67;;
3791;SDS011;1911;53.768;11.474;2023-06-14T13:04:49;7.23;;;2.37;;
3791;SDS011;1911;53.768;11.474;2023-06-14T13:07:15;5.23;;;2.83;;
3791;SDS011;1911;53.768;11.474;2023-06-14T13:09:41;4.13;;;2.40;;
3791;SDS011;1911;53.768;11.474;2023-06-14T13:12:08;16.93;;;2.70;;
3791;SDS011;1911;53.768;11.474;2023-06-14T13:14:37;5.60;;;3.10;;
3791;SDS011;1911;53.768;11.474;2023-06-14T13:17:04;4.43;;;1.97;;
3791;SDS011;1911;53.768;11.474;2023-06-14T13:19:30;3.03;;;2.43;;
3791;SDS011;1911;53.768;11.474;2023-06-14T13:21:56;4.73;;;2.60;;
3791;SDS011;1911;53.768;11.474;2023-06-14T13:24:21;4.53;;;2.90;;
3791;SDS011;1911;53.768;11.474;2023-06-14T13:26:47;6.63;;;2.20;;
3791;SDS011;1911;53.768;11.474;2023-06-14T13:29:13;7.00;;;2.90;;
3791;SDS011;1911;53.768;11.474;2023-06-14T13:31:41;5.03;;;2.63;;
3791;SDS011;1911;53.768;11.474;2023-06-14T13:34:06;5.13;;;3.00;;
3791;SDS011;1911;53.768;11.474;2023-06-14T13:36:32;8.80;;;2.33;;
3791;SDS011;1911;53.768;11.474;2023-06-14T13:38:59;3.70;;;2.17;;
3791;SDS011;1911;53.768;11.474;2023-06-14T13:41:25;4.10;;;2.43;;
3791;SDS011;1911;53.768;11.474;2023-06-14T13:44:00;2.83;;;2.30;;
3791;SDS011;1911;53.768;11.474;2023-06-14T13:46:29;3.10;;;2.33;;
3791;SDS011;1911;53.768;11.474;2023-06-14T13:48:54;9.13;;;3.20;;
3791;SDS011;1911;53.768;11.474;2023-06-14T13:51:20;3.27;;;2.20;;
3791;SDS011;1911;53.768;11.474;2023-06-14T13:53:47;13.83;;;2.60;;
3791;SDS011;1911;53.768;11.474;2023-06-14T13:56:14;3.20;;;2.67;;
3791;SDS011;1911;53.768;11.474;2023-06-14T13:58:40;3.60;;;2.20;;
3791;SDS011;1911;53.768;11.474;2023-06-14T14:01:08;6.00;;;2.63;;
3791;SDS011;1911;53.768;11.474;2023-06-14T14:03:34;6.77;;;2.43;;
3791;SDS011;1911;53.768;11.474;2023-06-14T14:06:00;5.20;;;2.10;;
3791;SDS011;1911;53.768;11.474;2023-06-14T14:08:27;3.77;;;2.70;;
3791;SDS011;1911;53.768;11.474;2023-06-14T14:10:52;3.30;;;2.10;;
3791;SDS011;1911;53.768;11.474;2023-06-14T14:13:19;7.60;;;2.70;;
3791;SDS011;1911;53.768;11.474;2023-06-14T14:15:46;4.33;;;2.20;;
3791;SDS011;1911;53.768;11.474;2023-06-14T14:18:11;7.43;;;2.50;;
3791;SDS011;1911;53.768;11.474;2023-06-14T14:20:37;4.83;;;2.70;;
3791;SDS011;1911;53.768;11.474;2023-06-14T14:23:03;6.23;;;2.23;;
3791;SDS011;1911;53.768;11.474;2023-06-14T14:25:29;8.40;;;2.40;;
3791;SDS011;1911;53.768;11.474;2023-06-14T14:27:57;5.43;;;2.50;;
3791;SDS011;1911;53.768;11.474;2023-06-14T14:30:38;3.57;;;2.30;;
3791;SDS011;1911;53.768;11.474;2023-06-14T14:33:07;4.87;;;2.33;;
3791;SDS011;1911;53.768;11.474;2023-06-14T14:35:33;3.67;;;2.13;;
3791;SDS011;1911;53.768;11.474;2023-06-14T14:37:58;3.63;;;2.30;;
3791;SDS011;1911;53.768;11.474;2023-06-14T14:40:24;5.30;;;2.63;;
3791;SDS011;1911;53.768;11.474;2023-06-14T14:42:50;6.30;;;2.90;;
3791;SDS011;1911;53.768;11.474;2023-06-14T14:45:15;5.80;;;2.20;;
3791;SDS011;1911;53.768;11.474;2023-06-14T14:47:41;3.73;;;2.40;;
3791;SDS011;1911;53.768;11.474;2023-06-14T14:50:06;5.40;;;2.67;;
3791;SDS011;1911;53.768;11.474;2023-06-14T14:52:38;7.87;;;2.43;;
3791;SDS011;1911;53.768;11.474;2023-06-14T14:55:04;7.43;;;2.37;;
3791;SDS011;1911;53.768;11.474;2023-06-14T14:57:30;8.53;;;2.60;;
3791;SDS011;1911;53.768;11.474;2023-06-14T14:59:56;7.97;;;3.07;;
3791;SDS011;1911;53.768;11.474;2023-06-14T15:02:21;6.10;;;2.00;;
3791;SDS011;1911;53.768;11.474;2023-06-14T15:04:48;7.70;;;2.70;;
3791;SDS011;1911;53.768;11.474;2023-06-14T15:07:14;2.70;;;2.50;;
3791;SDS011;1911;53.768;11.474;2023-06-14T15:09:42;3.63;;;2.10;;
3791;SDS011;1911;53.768;11.474;2023-06-14T15:12:08;3.03;;;2.20;;
3791;SDS011;1911;53.768;11.474;2023-06-14T15:14:35;4.57;;;2.57;;
3791;SDS011;1911;53.768;11.474;2023-06-14T15:17:01;5.10;;;2.27;;
3791;SDS011;1911;53.768;11.474;2023-06-14T15:19:27;6.43;;;2.43;;
3791;SDS011;1911;53.768;11.474;2023-06-14T15:21:53;3.90;;;2.67;;
3791;SDS011;1911;53.768;11.474;2023-06-14T15:24:19;4.10;;;2.70;;